Weather observations for the past three days for
Dillingham, Dillingham Airport
Metric (Imperial)
Date Time (akdt) Wind (kph) Vis. (km) Weather Sky Cond. Temperature (ºC) Relative Humidity Wind Chill (°C) Heat Index (°C) Pressure Precipitation (cm)
Air Dwpt 6 hour altimeter (cm) sea level (mb) 1 hr 3 hr 6 hr
Max. Min.
31 14:56 N 15 16.09 Fair CLR 13.3 2.2 47% 75.97 1013.0
31 13:56 N 19 G 28 16.09 Fair CLR 12.2 4.4 59% 75.97 1013.2
31 12:56 N 11 16.09 A Few Clouds FEW035 11.7 3.9 59% 76 1013.4
31 11:56 N 9 16.09 Fair CLR 10 3.9 66% 9 76 1013.5
31 10:56 NE 9 16.09 Fair CLR 8.9 3.9 71% 8 76.02 1013.6
31 09:56 NE 17 16.09 Partly Cloudy SCT035 7.8 3.9 9.4 6.1 77% 5 76 1013.5
31 08:56 NE 7 16.09 A Few Clouds FEW025 6.7 5 89% 6 75.97 1012.9
31 06:56 W 9 16.09 Fair CLR 8.3 4.4 77% 7 75.92 1012.5
31 05:56 W 13 16.09 Fair CLR 8.9 6.7 86% 7 75.92 1012.4
31 04:56 SW 15 16.09 Fair CLR 8.9 7.2 89% 7 75.97 1013.1
31 03:56 SW 7 16.09 Fair CLR 8.9 7.2 9.4 7.8 89% 8 76.02 1013.7
31 02:56 SW 15 16.09 Fair CLR 8.9 7.2 89% 7 76.05 1014.2
31 01:56 SW 17 16.09 Fair CLR 9.4 6.7 83% 7 76.05 1014.2
31 00:56 W 15 16.09 Fair CLR 9.4 6.7 83% 7 76.07 1014.5
30 23:56 SW 13 16.09 Fair CLR 8.9 6.7 86% 7 76.1 1014.8
30 22:56 W 13 16.09 Fair CLR 9.4 6.7 83% 8 76.1 1014.8
30 21:56 SW 15 16.09 Fair CLR 9.4 7.2 12.8 9.4 86% 7 76.07 1014.7 0.03
30 20:56 W 19 G 24 16.09 A Few Clouds FEW030 11.1 7.8 80% 76.1 1014.7
30 19:56 SW 20 16.09 Partly Cloudy SCT026 11.7 7.8 77% 76.1 1014.8
30 18:56 W 22 G 35 16.09 Partly Cloudy FEW019 SCT037 SCT055 12.2 8.3 77% 76.12 1015.0 0.03
30 17:56 W 15 G 28 16.09 Overcast OVC020 11.7 8.9 83% 76.15 1015.5 0.03
30 16:56 SW 30 G 35 16.09 Overcast BKN019 BKN026 OVC038 12.8 8.3 74% 76.2 1016.2
30 15:56 SW 19 G 37 16.09 Overcast FEW013 OVC060 12.2 8.9 12.2 10.6 80% 76.25 1016.8
30 14:56 SW 22 G 30 16.09 Overcast FEW014 OVC055 11.7 9.4 86% 76.33 1017.9
30 13:56 SW 15 16.09 Overcast OVC060 11.7 9.4 86% 76.38 1018.4
30 12:56 W 11 16.09 Light Rain FEW012 BKN055 OVC070 11.1 9.4 89% 76.4 1018.9
30 11:56 SW 17 16.09 Overcast OVC090 11.1 8.9 86% 76.45 1019.4
30 10:56 W 20 16.09 Overcast OVC100 11.1 8.9 86% 76.43 1019.3
30 09:56 SW 17 16.09 Partly Cloudy SCT110 10.6 8.3 10.6 9.4 86% 76.45 1019.6
30 08:56 W 9 16.09 Fair CLR 10.6 7.8 83% 76.48 1019.9
30 07:56 W 17 16.09 Fair CLR 10 7.8 86% 8 76.5 1020.2
30 06:56 W 19 16.09 Fair CLR 10 7.8 86% 8 76.53 1020.4
30 05:56 SW 11 16.09 Fair CLR 10 7.2 83% 9 76.53 1020.4
30 04:56 W 15 16.09 Fair CLR 10.6 7.2 80% 76.53 1020.5
30 03:56 SW 13 16.09 Fair CLR 10.6 7.2 13.3 10.6 80% 76.53 1020.7
30 02:56 W 15 16.09 Fair CLR 11.1 7.2 77% 76.53 1020.6
30 01:56 W 19 G 30 16.09 Fair CLR 11.1 7.8 80% 76.53 1020.4
30 00:56 W 9 16.09 Fair CLR 11.1 7.8 80% 76.53 1020.4
29 23:56 W 13 16.09 Fair CLR 11.7 7.8 77% 76.5 1020.3
29 22:56 W 11 16.09 Fair CLR 12.8 8.3 74% 76.53 1020.4
29 21:56 W 17 16.09 Fair CLR 13.3 8.3 18.3 13.3 72% 76.48 1019.9
29 20:56 W 9 16.09 Fair CLR 15.6 7.8 60% 76.45 1019.6
29 19:56 W 17 16.09 Fair CLR 17.2 7.8 54% 76.43 1019.0
29 18:56 NW 15 16.09 Partly Cloudy SCT047 17.2 7.2 52% 76.38 1018.6
29 17:56 NW 13 16.09 Fair CLR 16.7 6.7 52% 76.35 1018.2
29 16:56 NW 11 16.09 Partly Cloudy SCT044 17.8 7.2 50% 76.33 1017.9
29 15:56 NW 15 16.09 Fair CLR 16.1 6.7 16.1 10.6 54% 76.33 1018.0
29 14:56 W 20 16.09 Fair CLR 16.1 6.1 52% 76.3 1017.5
29 13:56 W 9 16.09 Fair CLR 15 6.1 56% 76.33 1017.9
29 12:56 Vrbl 7 16.09 Fair CLR 13.9 5.6 58% 76.33 1017.6
29 11:56 SW 9 16.09 Fair CLR 12.8 7.2 69% 76.3 1017.5
29 10:56 SE 6 16.09 Fair CLR 11.1 8.9 86% 76.28 1017.3
29 09:56 Calm 16.09 Fair CLR 10.6 7.8 10.6 3.9 83% 76.25 1016.6 0.03
29 08:56 Calm 16.09 Fair CLR 6.7 6.1 96% 76.23 1016.5 0.03
29 07:56 W 9 16.09 Fair CLR 5 5 100% 3 76.2 1016.1
29 06:56 NW 7 16.09 Mostly Cloudy BKN050 5 5 100% 4 76.15 1015.5
29 04:56 NW 6 16.09 Mostly Cloudy BKN050 6.1 6.1 100% 76.02 1013.9
29 03:56 W 6 16.09 Fair CLR 7.2 7.2 11.1 6.7 100% 76 1013.4
29 02:56 NW 9 16.09 Fair CLR 7.8 7.8 100% 6 75.95 1012.6
29 01:56 W 13 16.09 Fair CLR 9.4 8.9 97% 8 75.9 1012.1
29 00:56 W 15 16.09 Fair CLR 9.4 9.4 100% 7 75.82 1011.3
28 23:56 W 17 16.09 A Few Clouds FEW047 10 9.4 96% 8 75.79 1010.5
28 22:56 W 13 16.09 Overcast OVC041 10.6 9.4 92% 75.77 1010.2
28 21:56 SW 15 16.09 Mostly Cloudy FEW011 BKN050 11.1 10 11.7 10.6 93% 75.72 1009.5
28 20:56 W 11 16.09 Overcast OVC011 11.7 10 89% 75.67 1008.9
28 19:56 SW 19 G 30 16.09 Overcast OVC012 11.1 10.6 97% 75.59 1008.1
28 18:56 SW 20 G 30 16.09 Overcast OVC011 11.1 10 93% 75.59 1007.9
28 17:56 SW 24 16.09 Overcast OVC006 11.1 10 93% 75.59 1007.9
28 16:56 SW 20 16.09 Overcast OVC008 11.1 10 93% 75.57 1007.8
28 15:56 SW 20 G 28 12.87 Overcast OVC006 10.6 10 11.1 10 96% 75.57 1007.8
Date Time (akdt) Wind (kph) Vis. (km) Weather Sky Cond. Air Dwpt Max. Min. Relative Humidity Wind Chill (°C) Heat Index (°C) altimeter (cm) sea level (mb) 1 hr 3 hr 6 hr
6 hour
Temperature (ºC) Pressure Precipitation (cm)